Time;durP1;ratioP1;P1;durP2;ratioP2;P2;SDS_P1;SDS_P2;PMS_P1;PMS_P2;Temp;Humidity;BMP_temperature;BMP_pressure;BME280_temperature;BME280_humidity;BME280_pressure;Samples;Min_cycle;Max_cycle;Signal;HPM_P1;HPM_P2
2022/08/07 00:01:09;;;;;;;9.52;4.40;;;;;;;;;;4949573;28;20031;-80
2022/08/07 00:03:36;;;;;;;6.32;4.18;;;;;;;;;;4949458;28;20035;-79
2022/08/07 00:06:02;;;;;;;5.55;4.20;;;;;;;;;;4958430;28;20008;-79
2022/08/07 00:08:28;;;;;;;5.57;4.40;;;;;;;;;;4953110;28;20059;-83
2022/08/07 00:10:55;;;;;;;6.78;3.78;;;;;;;;;;4951298;28;20042;-80
2022/08/07 00:13:21;;;;;;;6.20;3.67;;;;;;;;;;4946567;28;20465;-77
2022/08/07 00:15:49;;;;;;;8.32;4.20;;;;;;;;;;4954520;28;20035;-80
2022/08/07 00:18:16;;;;;;;5.10;3.85;;;;;;;;;;4954862;29;20135;-79
2022/08/07 00:20:42;;;;;;;4.55;3.55;;;;;;;;;;4955043;28;20476;-80
2022/08/07 00:23:08;;;;;;;6.72;3.60;;;;;;;;;;4948963;28;20385;-80
2022/08/07 00:25:35;;;;;;;6.05;3.97;;;;;;;;;;4951351;28;20050;-79
2022/08/07 00:28:01;;;;;;;5.38;3.83;;;;;;;;;;4955135;28;20019;-81
2022/08/07 00:30:28;;;;;;;7.55;3.65;;;;;;;;;;4955062;28;20493;-78
2022/08/07 00:32:58;;;;;;;5.78;3.40;;;;;;;;;;4953507;28;20034;-80
2022/08/07 00:35:25;;;;;;;7.20;3.42;;;;;;;;;;4955849;29;20027;-81
2022/08/07 00:37:52;;;;;;;6.28;3.65;;;;;;;;;;4951487;28;20035;-80
2022/08/07 00:40:18;;;;;;;5.53;3.78;;;;;;;;;;4954006;28;20020;-80
2022/08/07 00:42:44;;;;;;;7.28;4.05;;;;;;;;;;4956118;28;20031;-80
2022/08/07 00:45:11;;;;;;;7.45;3.83;;;;;;;;;;4956591;28;20023;-81
2022/08/07 00:47:37;;;;;;;7.07;4.18;;;;;;;;;;4952219;28;20026;-79
2022/08/07 00:50:04;;;;;;;8.27;4.63;;;;;;;;;;4952237;28;20031;-80
2022/08/07 00:52:30;;;;;;;10.77;3.70;;;;;;;;;;4955918;28;20004;-80
2022/08/07 00:54:56;;;;;;;7.50;3.88;;;;;;;;;;4952948;28;20050;-81
2022/08/07 00:57:23;;;;;;;4.97;3.28;;;;;;;;;;4953296;28;20035;-79
2022/08/07 00:59:49;;;;;;;6.38;4.10;;;;;;;;;;4944753;28;20038;-78
2022/08/07 01:02:16;;;;;;;6.40;3.70;;;;;;;;;;4951740;28;20035;-80
2022/08/07 01:04:42;;;;;;;5.63;3.50;;;;;;;;;;4948435;28;20031;-80
2022/08/07 01:07:08;;;;;;;6.30;3.42;;;;;;;;;;4954501;28;20548;-81
2022/08/07 01:09:35;;;;;;;5.05;3.55;;;;;;;;;;4954188;28;20055;-80
2022/08/07 01:12:01;;;;;;;9.70;4.70;;;;;;;;;;4982127;28;20027;-81
2022/08/07 01:14:27;;;;;;;9.23;3.85;;;;;;;;;;4951881;28;20053;-80
2022/08/07 01:16:54;;;;;;;7.55;4.38;;;;;;;;;;4945735;28;20083;-81
2022/08/07 01:19:22;;;;;;;5.55;3.85;;;;;;;;;;4955004;28;20027;-80
2022/08/07 01:21:50;;;;;;;4.50;3.65;;;;;;;;;;4955479;28;20035;-79
2022/08/07 01:24:17;;;;;;;9.65;4.10;;;;;;;;;;4954062;28;20491;-80
2022/08/07 01:26:43;;;;;;;4.60;3.50;;;;;;;;;;4970591;28;20035;-79
2022/08/07 01:29:10;;;;;;;5.63;3.58;;;;;;;;;;4948663;28;20106;-81
2022/08/07 01:31:37;;;;;;;8.63;3.72;;;;;;;;;;4951993;28;20079;-81
2022/08/07 01:34:04;;;;;;;7.68;3.67;;;;;;;;;;4948189;28;20139;-80
2022/08/07 01:36:31;;;;;;;4.65;3.72;;;;;;;;;;4951617;28;20028;-81
2022/08/07 01:38:57;;;;;;;8.05;4.75;;;;;;;;;;4955781;28;20055;-80
2022/08/07 01:41:24;;;;;;;12.77;4.22;;;;;;;;;;4968372;28;20128;-79
2022/08/07 01:43:50;;;;;;;4.93;3.70;;;;;;;;;;4943624;28;20059;-80
2022/08/07 01:46:17;;;;;;;6.07;4.25;;;;;;;;;;4953604;28;20095;-78
2022/08/07 01:48:44;;;;;;;9.00;4.00;;;;;;;;;;4952459;28;20122;-80
2022/08/07 01:51:23;;;;;;;6.93;4.63;;;;;;;;;;4950923;28;20063;-80
2022/08/07 01:53:51;;;;;;;5.95;4.03;;;;;;;;;;4953297;28;20074;-80
2022/08/07 01:56:25;;;;;;;6.22;4.45;;;;;;;;;;4953828;28;20024;-80
2022/08/07 01:59:01;;;;;;;11.13;5.25;;;;;;;;;;4955715;28;20058;-79
2022/08/07 02:01:27;;;;;;;;;;;;;;;;;;4962879;28;20023;-80
2022/08/07 02:03:59;;;;;;;6.80;4.32;;;;;;;;;;4959665;29;19921;-80
2022/08/07 02:06:26;;;;;;;7.80;4.53;;;;;;;;;;4954502;28;20035;-79
2022/08/07 02:08:53;;;;;;;6.97;3.90;;;;;;;;;;4959345;28;20047;-79
2022/08/07 02:11:20;;;;;;;8.90;4.50;;;;;;;;;;4954207;28;20039;-80
2022/08/07 02:13:47;;;;;;;5.57;3.97;;;;;;;;;;4959451;28;20054;-80
2022/08/07 02:16:14;;;;;;;8.55;4.72;;;;;;;;;;4959997;28;20046;-81
2022/08/07 02:18:41;;;;;;;7.15;4.53;;;;;;;;;;4951591;28;20498;-80
2022/08/07 02:21:08;;;;;;;6.13;4.72;;;;;;;;;;4958629;28;20046;-80
2022/08/07 02:23:36;;;;;;;5.35;3.80;;;;;;;;;;4959176;28;20394;-80
2022/08/07 02:26:03;;;;;;;11.55;4.63;;;;;;;;;;4954799;28;20062;-80
2022/08/07 02:28:30;;;;;;;10.75;4.28;;;;;;;;;;4951344;28;20028;-79
2022/08/07 02:30:57;;;;;;;5.20;3.83;;;;;;;;;;4955294;28;20523;-82
2022/08/07 02:33:25;;;;;;;11.38;4.35;;;;;;;;;;4953382;28;20039;-79
2022/08/07 02:35:52;;;;;;;7.38;4.18;;;;;;;;;;4949248;28;20029;-80
2022/08/07 02:38:18;;;;;;;6.53;4.40;;;;;;;;;;4962987;28;20046;-80
2022/08/07 02:40:44;;;;;;;7.63;4.18;;;;;;;;;;4953939;28;20032;-79
2022/08/07 02:43:11;;;;;;;5.45;4.20;;;;;;;;;;4964810;28;20031;-80
2022/08/07 02:45:38;;;;;;;6.32;4.22;;;;;;;;;;4958217;28;20054;-80
2022/08/07 02:48:04;;;;;;;8.95;4.53;;;;;;;;;;4951431;28;20020;-81
2022/08/07 02:50:33;;;;;;;6.07;4.10;;;;;;;;;;4951458;28;20031;-80
2022/08/07 02:53:03;;;;;;;5.80;4.00;;;;;;;;;;4950824;28;20023;-80
2022/08/07 02:55:31;;;;;;;6.47;3.95;;;;;;;;;;4950439;28;20027;-80
2022/08/07 02:58:02;;;;;;;7.20;3.78;;;;;;;;;;4959686;28;20047;-80
2022/08/07 03:00:29;;;;;;;5.65;4.18;;;;;;;;;;4954995;28;20031;-79
2022/08/07 03:02:55;;;;;;;5.65;4.07;;;;;;;;;;4957689;28;20033;-80
2022/08/07 03:05:23;;;;;;;8.02;4.63;;;;;;;;;;4957126;28;20020;-80
2022/08/07 03:07:50;;;;;;;6.35;4.28;;;;;;;;;;4961132;28;20023;-81
2022/08/07 03:10:17;;;;;;;7.25;3.90;;;;;;;;;;4956564;28;20035;-80
2022/08/07 03:12:45;;;;;;;5.40;3.83;;;;;;;;;;4956716;28;20038;-80
2022/08/07 03:15:11;;;;;;;6.57;4.30;;;;;;;;;;4956366;28;20085;-79
2022/08/07 03:17:38;;;;;;;9.20;4.32;;;;;;;;;;4958819;28;20075;-79
2022/08/07 03:20:05;;;;;;;6.22;4.13;;;;;;;;;;4946625;28;20036;-79
2022/08/07 03:22:31;;;;;;;4.63;3.60;;;;;;;;;;4956675;28;20039;-80
2022/08/07 03:24:58;;;;;;;6.50;4.47;;;;;;;;;;4960191;28;20035;-81
2022/08/07 03:27:25;;;;;;;11.63;4.00;;;;;;;;;;4957531;28;20030;-79
2022/08/07 03:29:51;;;;;;;6.13;4.57;;;;;;;;;;4953927;28;20023;-79
2022/08/07 03:32:22;;;;;;;6.30;3.85;;;;;;;;;;4954783;28;20035;-80
2022/08/07 03:34:51;;;;;;;7.53;4.15;;;;;;;;;;4954560;29;20031;-79
2022/08/07 03:37:18;;;;;;;9.75;4.00;;;;;;;;;;4955292;28;20062;-80
2022/08/07 03:39:46;;;;;;;13.70;4.60;;;;;;;;;;4949177;28;20190;-80
2022/08/07 03:42:13;;;;;;;6.68;4.20;;;;;;;;;;4954706;28;20161;-79
2022/08/07 03:44:40;;;;;;;7.20;3.97;;;;;;;;;;4957049;28;20027;-79
2022/08/07 03:47:07;;;;;;;5.50;4.53;;;;;;;;;;4951000;28;20472;-79
2022/08/07 03:49:33;;;;;;;6.88;4.65;;;;;;;;;;4954543;28;20746;-79
2022/08/07 03:52:00;;;;;;;6.10;3.95;;;;;;;;;;4956161;28;20507;-80
2022/08/07 03:54:27;;;;;;;6.90;3.90;;;;;;;;;;4957273;28;20854;-79
2022/08/07 03:56:54;;;;;;;5.88;4.20;;;;;;;;;;4957318;29;20070;-80
2022/08/07 03:59:20;;;;;;;5.60;4.40;;;;;;;;;;4949181;28;20055;-79
2022/08/07 04:01:46;;;;;;;6.28;3.60;;;;;;;;;;4969734;28;20035;-79
2022/08/07 04:04:15;;;;;;;6.30;3.97;;;;;;;;;;4954298;28;20149;-81
2022/08/07 04:06:43;;;;;;;8.48;4.45;;;;;;;;;;4954921;29;20477;-81
2022/08/07 04:09:09;;;;;;;5.13;3.90;;;;;;;;;;4957776;28;20050;-80
2022/08/07 04:11:36;;;;;;;9.98;4.40;;;;;;;;;;4955933;28;20008;-79
2022/08/07 04:14:02;;;;;;;8.10;4.20;;;;;;;;;;4950073;28;20042;-79
2022/08/07 04:16:29;;;;;;;6.55;3.75;;;;;;;;;;4955496;28;20396;-79
2022/08/07 04:18:55;;;;;;;6.00;3.83;;;;;;;;;;4951247;28;20067;-79
2022/08/07 04:21:21;;;;;;;5.55;4.13;;;;;;;;;;4952698;28;20414;-77
2022/08/07 04:23:47;;;;;;;7.75;4.40;;;;;;;;;;4953510;28;20035;-78
2022/08/07 04:26:14;;;;;;;9.23;4.10;;;;;;;;;;4972048;28;20027;-80
2022/08/07 04:28:40;;;;;;;11.73;4.80;;;;;;;;;;4956057;28;20497;-80
2022/08/07 04:31:08;;;;;;;5.70;3.95;;;;;;;;;;4955855;28;20082;-79
2022/08/07 04:33:34;;;;;;;7.15;3.63;;;;;;;;;;4957534;28;20437;-79
2022/08/07 04:36:00;;;;;;;6.50;4.07;;;;;;;;;;4962580;28;20032;-79
2022/08/07 04:38:26;;;;;;;6.57;4.22;;;;;;;;;;4956840;28;20102;-79
2022/08/07 04:40:53;;;;;;;5.70;4.47;;;;;;;;;;4956313;28;20528;-79
2022/08/07 04:43:21;;;;;;;6.15;4.57;;;;;;;;;;4951870;28;20031;-79
2022/08/07 04:46:06;;;;;;;6.90;4.07;;;;;;;;;;4956495;28;20023;-79
2022/08/07 04:48:44;;;;;;;10.27;4.35;;;;;;;;;;4955755;28;20540;-79
2022/08/07 04:51:16;;;;;;;7.65;4.35;;;;;;;;;;4953978;28;20469;-79
2022/08/07 04:54:12;;;;;;;4.65;3.95;;;;;;;;;;4951845;28;20031;-79
2022/08/07 04:56:46;;;;;;;9.52;3.95;;;;;;;;;;4941815;28;20070;-79
2022/08/07 04:59:38;;;;;;;11.07;4.43;;;;;;;;;;4950220;28;20066;-79
2022/08/07 05:02:10;;;;;;;6.47;4.00;;;;;;;;;;4940591;28;20044;-80
2022/08/07 05:04:48;;;;;;;6.95;4.38;;;;;;;;;;4954106;28;20030;-80
2022/08/07 05:07:19;;;;;;;5.82;4.35;;;;;;;;;;4955145;28;20031;-79
2022/08/07 05:10:06;;;;;;;6.47;4.03;;;;;;;;;;4951987;28;20054;-79
2022/08/07 05:12:43;;;;;;;8.90;4.10;;;;;;;;;;4954622;28;20019;-81
2022/08/07 05:15:16;;;;;;;6.13;4.30;;;;;;;;;;4955304;29;20031;-81
2022/08/07 05:17:45;;;;;;;10.30;4.25;;;;;;;;;;4949055;28;20028;-79
2022/08/07 05:20:13;;;;;;;8.68;5.30;;;;;;;;;;4949518;28;20027;-80
2022/08/07 05:22:41;;;;;;;10.48;4.45;;;;;;;;;;4953624;28;20051;-79
2022/08/07 05:25:08;;;;;;;4.55;3.63;;;;;;;;;;4947101;28;20042;-79
2022/08/07 05:27:35;;;;;;;12.82;4.93;;;;;;;;;;4965789;28;20087;-79
2022/08/07 05:30:02;;;;;;;9.85;4.53;;;;;;;;;;4949832;28;20028;-80
2022/08/07 05:32:28;;;;;;;5.43;4.43;;;;;;;;;;4955484;29;20142;-80
2022/08/07 05:34:55;;;;;;;7.13;4.45;;;;;;;;;;4953735;28;20031;-79
2022/08/07 05:37:22;;;;;;;6.68;4.63;;;;;;;;;;4955457;28;20031;-79
2022/08/07 05:39:48;;;;;;;8.45;4.15;;;;;;;;;;4964494;28;20469;-79
2022/08/07 05:42:15;;;;;;;4.85;4.13;;;;;;;;;;4951587;28;20137;-80
2022/08/07 05:44:41;;;;;;;6.07;4.22;;;;;;;;;;4952875;28;20019;-80
2022/08/07 05:47:08;;;;;;;5.72;4.20;;;;;;;;;;4950778;28;20023;-80
2022/08/07 05:49:34;;;;;;;5.47;3.53;;;;;;;;;;4946051;28;20015;-79
2022/08/07 05:52:00;;;;;;;5.45;3.88;;;;;;;;;;4947494;28;20106;-80
2022/08/07 05:54:27;;;;;;;5.93;3.97;;;;;;;;;;4951239;28;20027;-80
2022/08/07 05:56:54;;;;;;;6.07;3.78;;;;;;;;;;4954146;29;20115;-80
2022/08/07 05:59:21;;;;;;;4.82;4.30;;;;;;;;;;4943477;28;20035;-77
2022/08/07 06:01:48;;;;;;;9.98;3.95;;;;;;;;;;4946342;28;20099;-80
2022/08/07 06:04:16;;;;;;;7.03;3.80;;;;;;;;;;4951115;28;20085;-81
2022/08/07 06:06:42;;;;;;;6.50;4.10;;;;;;;;;;4948723;28;20055;-81
2022/08/07 06:09:09;;;;;;;4.43;3.28;;;;;;;;;;4954826;28;20412;-80
2022/08/07 06:11:35;;;;;;;6.82;4.30;;;;;;;;;;4950348;28;20130;-81
2022/08/07 06:14:02;;;;;;;6.18;3.72;;;;;;;;;;4956751;28;20039;-80
2022/08/07 06:16:32;;;;;;;11.90;4.68;;;;;;;;;;4939201;29;20035;-80
2022/08/07 06:18:59;;;;;;;5.15;4.53;;;;;;;;;;4951713;28;20043;-79
2022/08/07 06:21:26;;;;;;;7.63;3.60;;;;;;;;;;4952442;28;20023;-81
2022/08/07 06:23:52;;;;;;;4.63;3.15;;;;;;;;;;4953412;28;20041;-82
2022/08/07 06:26:18;;;;;;;5.07;3.45;;;;;;;;;;4955076;28;20031;-81
2022/08/07 06:28:48;;;;;;;4.47;3.47;;;;;;;;;;4952559;28;20166;-81
2022/08/07 06:31:15;;;;;;;7.10;4.13;;;;;;;;;;4937226;29;20080;-80
2022/08/07 06:33:41;;;;;;;6.20;4.10;;;;;;;;;;4948171;28;20033;-82
2022/08/07 06:36:09;;;;;;;6.15;3.67;;;;;;;;;;4947579;28;20091;-81
2022/08/07 06:38:35;;;;;;;6.65;3.40;;;;;;;;;;4955052;28;20018;-82
2022/08/07 06:41:04;;;;;;;7.15;3.33;;;;;;;;;;4951380;28;20024;-81
2022/08/07 06:43:34;;;;;;;7.40;3.60;;;;;;;;;;4959286;28;20035;-81
2022/08/07 06:46:01;;;;;;;10.02;3.47;;;;;;;;;;4946152;28;20024;-80
2022/08/07 06:48:27;;;;;;;6.97;3.65;;;;;;;;;;4950222;28;20027;-81
2022/08/07 06:50:54;;;;;;;4.15;3.10;;;;;;;;;;4956796;28;20142;-80
2022/08/07 06:53:21;;;;;;;4.85;3.03;;;;;;;;;;4984703;28;20034;-81
2022/08/07 06:55:48;;;;;;;5.72;3.40;;;;;;;;;;4954109;28;20054;-80
2022/08/07 06:58:16;;;;;;;4.63;3.20;;;;;;;;;;4957593;28;20043;-82
2022/08/07 07:00:43;;;;;;;6.85;3.45;;;;;;;;;;4959516;28;20583;-80
2022/08/07 07:03:10;;;;;;;4.38;3.35;;;;;;;;;;4951692;28;20098;-81
2022/08/07 07:05:36;;;;;;;5.47;3.33;;;;;;;;;;4948712;28;20443;-80
2022/08/07 07:08:02;;;;;;;5.95;4.25;;;;;;;;;;4952513;28;20052;-80
2022/08/07 07:10:30;;;;;;;6.10;3.28;;;;;;;;;;4951990;28;20031;-80
2022/08/07 07:12:59;;;;;;;6.97;4.22;;;;;;;;;;4957611;28;20114;-81
2022/08/07 07:15:30;;;;;;;6.15;3.20;;;;;;;;;;4957222;28;20030;-80
2022/08/07 07:18:11;;;;;;;6.90;3.47;;;;;;;;;;4951202;29;20460;-81
2022/08/07 07:20:41;;;;;;;10.55;3.55;;;;;;;;;;4955306;28;20031;-80
2022/08/07 07:23:09;;;;;;;6.97;3.42;;;;;;;;;;4956319;28;20027;-80
2022/08/07 07:25:36;;;;;;;3.60;3.08;;;;;;;;;;4957671;28;20050;-81
2022/08/07 07:28:11;;;;;;;5.50;3.00;;;;;;;;;;4957417;28;20109;-80
2022/08/07 07:30:40;;;;;;;11.50;3.50;;;;;;;;;;4942982;28;20367;-80
2022/08/07 07:33:07;;;;;;;7.40;4.57;;;;;;;;;;4953944;28;20267;-80
2022/08/07 07:35:35;;;;;;;6.13;3.55;;;;;;;;;;4956282;28;20042;-80
2022/08/07 07:38:02;;;;;;;5.45;3.15;;;;;;;;;;4956262;29;20016;-80
2022/08/07 07:40:29;;;;;;;8.02;3.38;;;;;;;;;;4957841;28;20043;-81
2022/08/07 07:43:00;;;;;;;6.15;3.60;;;;;;;;;;4956620;28;20473;-82
2022/08/07 07:45:27;;;;;;;7.25;3.20;;;;;;;;;;4954883;28;20027;-80
2022/08/07 07:47:56;;;;;;;4.78;3.20;;;;;;;;;;4946281;28;20457;-81
2022/08/07 07:50:23;;;;;;;5.18;3.33;;;;;;;;;;4949792;28;20062;-80
2022/08/07 07:52:51;;;;;;;5.78;3.53;;;;;;;;;;4954425;28;20027;-79
2022/08/07 07:55:18;;;;;;;3.47;3.10;;;;;;;;;;4961858;28;20032;-81
2022/08/07 07:57:45;;;;;;;7.22;3.55;;;;;;;;;;4946988;28;20031;-81
2022/08/07 08:00:12;;;;;;;4.70;3.33;;;;;;;;;;4956704;28;20023;-80
2022/08/07 08:02:42;;;;;;;3.25;2.60;;;;;;;;;;4953175;28;20028;-81
2022/08/07 08:05:09;;;;;;;4.55;3.10;;;;;;;;;;4955349;28;20030;-81
2022/08/07 08:07:35;;;;;;;3.58;2.70;;;;;;;;;;4952621;28;20396;-80
2022/08/07 08:10:02;;;;;;;5.82;3.30;;;;;;;;;;4953490;28;20028;-80
2022/08/07 08:12:29;;;;;;;8.80;3.92;;;;;;;;;;4955569;28;20058;-80
2022/08/07 08:14:55;;;;;;;6.25;2.78;;;;;;;;;;4949676;28;20068;-79
2022/08/07 08:17:23;;;;;;;5.47;3.13;;;;;;;;;;4950885;28;20036;-81
2022/08/07 08:19:52;;;;;;;7.15;3.35;;;;;;;;;;4949414;28;20032;-80
2022/08/07 08:27:49;;;;;;;;;;;;;;;;;;4953645;28;20094;-78
2022/08/07 08:30:16;;;;;;;3.67;2.55;;;;;;;;;;4949547;28;20316;-78
2022/08/07 08:32:57;;;;;;;4.40;2.95;;;;;;;;;;4950322;28;20019;-79
2022/08/07 08:35:25;;;;;;;5.95;2.53;;;;;;;;;;4952682;28;20031;-78
2022/08/07 08:37:57;;;;;;;3.30;2.50;;;;;;;;;;4949791;28;20070;-78
2022/08/07 08:40:38;;;;;;;4.35;3.20;;;;;;;;;;4955719;28;20093;-78
2022/08/07 08:43:04;;;;;;;4.93;2.78;;;;;;;;;;4952919;28;20055;-78
2022/08/07 08:45:49;;;;;;;5.90;3.22;;;;;;;;;;4953587;28;20027;-78
2022/08/07 08:48:30;;;;;;;4.75;2.80;;;;;;;;;;4954463;28;20027;-77
2022/08/07 08:50:59;;;;;;;6.03;2.92;;;;;;;;;;4967540;28;20032;-78
2022/08/07 08:53:41;;;;;;;3.90;2.50;;;;;;;;;;4954555;28;20130;-78
2022/08/07 08:56:12;;;;;;;8.55;3.65;;;;;;;;;;4947612;28;20369;-79
2022/08/07 08:58:57;;;;;;;4.35;2.70;;;;;;;;;;4968295;28;20473;-79
2022/08/07 09:01:42;;;;;;;3.60;2.88;;;;;;;;;;4945734;28;20051;-79
2022/08/07 09:04:17;;;;;;;7.38;2.78;;;;;;;;;;4953309;28;20113;-79
2022/08/07 09:06:46;;;;;;;5.43;3.10;;;;;;;;;;4954043;28;20163;-78
2022/08/07 09:09:20;;;;;;;5.53;2.85;;;;;;;;;;4953696;28;20055;-79
2022/08/07 09:11:50;;;;;;;3.73;2.57;;;;;;;;;;4942443;28;20031;-78
2022/08/07 09:14:18;;;;;;;7.60;2.70;;;;;;;;;;4948795;28;20027;-78
2022/08/07 09:16:51;;;;;;;4.80;2.83;;;;;;;;;;4943670;28;20034;-79
2022/08/07 09:19:23;;;;;;;5.70;3.03;;;;;;;;;;4970911;28;20492;-79
2022/08/07 09:21:56;;;;;;;4.00;2.45;;;;;;;;;;4955788;28;20570;-79
2022/08/07 09:24:27;;;;;;;3.90;2.83;;;;;;;;;;4953323;28;20781;-78
2022/08/07 09:27:12;;;;;;;5.90;3.13;;;;;;;;;;4953747;28;20070;-79
2022/08/07 09:29:53;;;;;;;5.00;2.75;;;;;;;;;;4950584;28;20524;-80
2022/08/07 09:32:22;;;;;;;3.67;2.40;;;;;;;;;;4950307;28;20023;-78
2022/08/07 09:34:51;;;;;;;5.03;2.60;;;;;;;;;;4952905;28;20025;-79
2022/08/07 09:37:28;;;;;;;10.95;3.05;;;;;;;;;;4952856;28;20039;-79
2022/08/07 09:40:14;;;;;;;4.32;2.80;;;;;;;;;;4945894;28;20027;-79
2022/08/07 09:42:56;;;;;;;4.28;2.28;;;;;;;;;;4933083;28;20040;-79
2022/08/07 09:45:31;;;;;;;4.85;3.22;;;;;;;;;;4951479;28;20090;-79
2022/08/07 09:48:11;;;;;;;6.82;2.90;;;;;;;;;;4967577;28;20717;-79
2022/08/07 09:50:52;;;;;;;4.03;2.60;;;;;;;;;;4947576;28;20087;-81
2022/08/07 09:53:21;;;;;;;6.75;2.85;;;;;;;;;;4950963;28;20031;-79
2022/08/07 09:56:02;;;;;;;6.93;2.95;;;;;;;;;;4951937;28;20036;-79
2022/08/07 09:58:47;;;;;;;6.10;2.97;;;;;;;;;;4944503;28;20047;-77
2022/08/07 10:01:32;;;;;;;4.20;2.53;;;;;;;;;;4950640;28;20043;-81
2022/08/07 10:04:07;;;;;;;4.65;2.50;;;;;;;;;;4944476;28;20368;-78
2022/08/07 10:06:49;;;;;;;4.75;2.40;;;;;;;;;;4950394;28;20066;-78
2022/08/07 10:09:34;;;;;;;6.05;2.72;;;;;;;;;;4943773;28;20437;-78
2022/08/07 10:12:16;;;;;;;7.63;2.40;;;;;;;;;;4949252;28;20074;-78
2022/08/07 10:14:42;;;;;;;4.57;2.88;;;;;;;;;;4957461;28;20461;-79
2022/08/07 10:17:39;;;;;;;6.15;2.58;;;;;;;;;;4953676;28;20059;-79
2022/08/07 10:20:08;;;;;;;3.78;2.33;;;;;;;;;;4949681;28;20046;-79
2022/08/07 10:22:48;;;;;;;6.93;2.92;;;;;;;;;;4947512;28;20032;-81
2022/08/07 10:25:29;;;;;;;4.57;2.22;;;;;;;;;;4957568;28;20098;-81
2022/08/07 10:28:23;;;;;;;6.70;2.53;;;;;;;;;;4952996;28;20020;-78
2022/08/07 10:30:54;;;;;;;3.63;2.20;;;;;;;;;;4981126;28;20031;-80
2022/08/07 10:33:30;;;;;;;4.85;2.50;;;;;;;;;;4950836;28;20055;-81
2022/08/07 10:35:56;;;;;;;2.92;2.22;;;;;;;;;;4956106;28;20038;-78
2022/08/07 10:38:25;;;;;;;4.05;2.28;;;;;;;;;;4956661;29;20031;-80
2022/08/07 10:41:12;;;;;;;4.97;2.10;;;;;;;;;;4953859;28;20051;-80
2022/08/07 10:43:42;;;;;;;6.90;2.75;;;;;;;;;;4949254;28;20039;-79
2022/08/07 10:46:29;;;;;;;8.77;2.45;;;;;;;;;;4959449;28;20026;-80
2022/08/07 10:48:55;;;;;;;4.95;2.78;;;;;;;;;;4955358;28;20046;-79
2022/08/07 10:51:22;;;;;;;4.70;3.13;;;;;;;;;;4948688;28;20028;-80
2022/08/07 10:54:01;;;;;;;3.58;2.10;;;;;;;;;;4947896;28;20035;-81
2022/08/07 10:56:36;;;;;;;3.53;2.20;;;;;;;;;;4949792;28;20098;-80
2022/08/07 10:59:11;;;;;;;4.18;2.35;;;;;;;;;;4949818;29;20481;-81
2022/08/07 11:01:40;;;;;;;3.17;2.22;;;;;;;;;;4947756;28;20560;-86
2022/08/07 11:04:15;;;;;;;3.17;2.05;;;;;;;;;;4956990;28;20063;-79
2022/08/07 11:06:48;;;;;;;4.10;2.25;;;;;;;;;;4955450;28;20027;-79
2022/08/07 11:09:18;;;;;;;3.28;2.25;;;;;;;;;;4953688;28;20043;-79
2022/08/07 11:11:58;;;;;;;5.70;2.33;;;;;;;;;;4983769;28;20019;-80
2022/08/07 11:14:25;;;;;;;2.90;2.58;;;;;;;;;;4953537;28;20027;-79
2022/08/07 11:16:59;;;;;;;2.83;2.63;;;;;;;;;;4951446;28;20364;-80
2022/08/07 11:19:34;;;;;;;7.45;2.40;;;;;;;;;;4950817;28;20019;-80
2022/08/07 11:22:19;;;;;;;4.70;2.22;;;;;;;;;;4955073;28;20047;-79
2022/08/07 11:25:04;;;;;;;4.72;2.10;;;;;;;;;;4953203;28;20038;-78
2022/08/07 11:27:42;;;;;;;3.08;2.00;;;;;;;;;;4949535;28;20042;-78
2022/08/07 11:30:11;;;;;;;3.30;2.25;;;;;;;;;;4965904;28;20074;-80
2022/08/07 11:32:45;;;;;;;3.38;2.10;;;;;;;;;;4950467;28;20050;-78
2022/08/07 11:35:21;;;;;;;6.30;3.43;;;;;;;;;;4969931;28;20031;-79
2022/08/07 11:37:53;;;;;;;6.80;2.58;;;;;;;;;;4947143;28;20027;-80
2022/08/07 11:40:30;;;;;;;2.58;2.38;;;;;;;;;;4951247;29;20039;-80
2022/08/07 11:43:05;;;;;;;4.22;2.20;;;;;;;;;;4951009;28;20104;-80
2022/08/07 11:45:37;;;;;;;4.38;2.17;;;;;;;;;;4942746;28;20067;-80
2022/08/07 11:48:07;;;;;;;4.43;2.58;;;;;;;;;;4952014;28;20129;-80
2022/08/07 11:50:45;;;;;;;2.83;2.30;;;;;;;;;;4956534;28;20383;-81
2022/08/07 11:53:30;;;;;;;5.32;2.55;;;;;;;;;;4946598;28;20106;-77
2022/08/07 11:56:05;;;;;;;3.75;2.38;;;;;;;;;;4949259;28;20544;-78
2022/08/07 11:58:43;;;;;;;6.15;2.33;;;;;;;;;;4950631;28;20127;-78
2022/08/07 12:01:28;;;;;;;3.63;2.20;;;;;;;;;;4955621;28;20030;-78
2022/08/07 12:04:16;;;;;;;3.33;2.20;;;;;;;;;;4954686;28;20058;-78
2022/08/07 12:06:48;;;;;;;3.38;1.92;;;;;;;;;;4950559;29;20812;-79
2022/08/07 12:09:26;;;;;;;3.47;2.15;;;;;;;;;;4951327;28;20043;-78
2022/08/07 12:12:11;;;;;;;3.15;2.20;;;;;;;;;;4957360;28;20086;-78
2022/08/07 12:14:47;;;;;;;4.10;2.30;;;;;;;;;;4945044;28;20111;-78
2022/08/07 12:17:16;;;;;;;3.72;2.10;;;;;;;;;;4955136;28;20047;-79
2022/08/07 12:19:49;;;;;;;2.38;1.95;;;;;;;;;;4950539;29;20400;-79
2022/08/07 12:22:36;;;;;;;4.22;1.90;;;;;;;;;;4954500;28;20035;-79
2022/08/07 12:27:58;;;;;;;2.83;2.10;;;;;;;;;;4947197;28;20556;-79
2022/08/07 12:30:27;;;;;;;3.05;2.38;;;;;;;;;;4953250;28;20023;-79
2022/08/07 12:33:04;;;;;;;2.30;2.10;;;;;;;;;;4956581;28;20032;-80
2022/08/07 12:35:31;;;;;;;3.05;2.05;;;;;;;;;;4955608;28;20031;-78
2022/08/07 12:37:59;;;;;;;2.20;2.00;;;;;;;;;;4952064;28;20323;-79
2022/08/07 12:40:33;;;;;;;2.83;2.40;;;;;;;;;;4950676;28;20038;-85
2022/08/07 12:43:01;;;;;;;4.35;2.28;;;;;;;;;;4956220;28;20459;-82
2022/08/07 12:45:51;;;;;;;2.83;2.08;;;;;;;;;;4953511;28;20028;-79
2022/08/07 12:48:29;;;;;;;2.42;2.20;;;;;;;;;;4939623;28;20039;-81
2022/08/07 12:51:07;;;;;;;3.53;2.25;;;;;;;;;;4955341;28;20024;-85
2022/08/07 12:53:44;;;;;;;2.75;2.00;;;;;;;;;;4956712;28;20039;-80
2022/08/07 12:56:22;;;;;;;4.68;2.17;;;;;;;;;;4952382;28;20038;-83
2022/08/07 12:58:49;;;;;;;2.92;2.00;;;;;;;;;;4965404;28;20035;-81
2022/08/07 13:01:22;;;;;;;2.00;1.70;;;;;;;;;;4957531;28;20031;-82
2022/08/07 13:03:48;;;;;;;2.90;2.00;;;;;;;;;;4953147;28;20046;-83
2022/08/07 13:06:20;;;;;;;3.10;1.98;;;;;;;;;;4955433;28;20050;-85
2022/08/07 13:09:01;;;;;;;2.35;2.10;;;;;;;;;;4947325;28;20485;-83
2022/08/07 13:11:33;;;;;;;2.30;2.10;;;;;;;;;;4986687;28;20027;-82
2022/08/07 13:14:18;;;;;;;2.22;1.95;;;;;;;;;;4947758;28;20023;-82
2022/08/07 13:16:52;;;;;;;4.25;2.35;;;;;;;;;;4949871;28;20027;-80
2022/08/07 13:19:25;;;;;;;2.65;2.00;;;;;;;;;;4953174;28;20039;-80
2022/08/07 13:21:51;;;;;;;2.13;1.83;;;;;;;;;;4952274;29;20115;-81
2022/08/07 13:24:33;;;;;;;2.85;2.00;;;;;;;;;;4949596;28;20107;-81
2022/08/07 13:27:22;;;;;;;2.42;2.20;;;;;;;;;;4954873;28;20023;-83
2022/08/07 13:29:52;;;;;;;2.80;1.80;;;;;;;;;;4947500;28;20042;-80
2022/08/07 13:32:41;;;;;;;3.78;2.10;;;;;;;;;;4970254;28;20094;-84
2022/08/07 13:35:11;;;;;;;2.42;1.73;;;;;;;;;;4941813;28;20038;-82
2022/08/07 13:38:09;;;;;;;3.28;2.10;;;;;;;;;;4949478;28;20100;-84
2022/08/07 13:40:59;;;;;;;3.58;2.05;;;;;;;;;;4935142;28;20111;-82
2022/08/07 13:43:26;;;;;;;2.85;1.75;;;;;;;;;;4938510;28;20078;-81
2022/08/07 13:45:54;;;;;;;3.00;1.92;;;;;;;;;;4955603;28;20034;-85
2022/08/07 13:48:21;;;;;;;3.00;1.85;;;;;;;;;;4953561;28;20979;-83
2022/08/07 13:50:49;;;;;;;4.85;1.80;;;;;;;;;;4950455;28;20042;-82
2022/08/07 13:53:43;;;;;;;3.20;2.38;;;;;;;;;;4991433;28;20035;-84
2022/08/07 13:56:10;;;;;;;3.00;2.00;;;;;;;;;;4955220;28;20091;-82
2022/08/07 14:01:24;;;;;;;2.80;1.98;;;;;;;;;;4958180;28;20118;-82
2022/08/07 14:03:51;;;;;;;2.85;1.92;;;;;;;;;;4957739;28;20545;-82
2022/08/07 14:06:18;;;;;;;2.72;1.90;;;;;;;;;;4956058;28;20050;-82
2022/08/07 14:08:46;;;;;;;3.38;1.98;;;;;;;;;;4961007;28;20098;-81
2022/08/07 14:11:13;;;;;;;2.83;1.80;;;;;;;;;;4977247;28;20027;-84
2022/08/07 14:13:40;;;;;;;3.45;1.92;;;;;;;;;;4954657;28;20044;-80
2022/08/07 14:16:09;;;;;;;3.67;1.90;;;;;;;;;;4958078;28;20035;-81
2022/08/07 14:18:42;;;;;;;2.78;1.70;;;;;;;;;;4960873;28;20038;-81
2022/08/07 14:21:31;;;;;;;2.53;1.63;;;;;;;;;;4971047;28;20035;-81
2022/08/07 14:24:04;;;;;;;3.47;1.90;;;;;;;;;;4953704;28;20512;-82
2022/08/07 14:26:53;;;;;;;2.25;1.90;;;;;;;;;;4949428;28;20043;-80
2022/08/07 14:29:22;;;;;;;2.35;1.90;;;;;;;;;;4958544;28;20086;-81
2022/08/07 14:31:49;;;;;;;3.47;2.28;;;;;;;;;;4948838;28;20105;-81
2022/08/07 14:34:16;;;;;;;3.35;1.70;;;;;;;;;;4951467;28;20055;-80
2022/08/07 14:36:43;;;;;;;2.53;1.42;;;;;;;;;;4952207;29;20019;-82
2022/08/07 14:39:10;;;;;;;2.97;1.60;;;;;;;;;;4958282;28;20389;-82
2022/08/07 14:41:39;;;;;;;5.03;1.90;;;;;;;;;;4960183;28;20028;-83
2022/08/07 14:44:09;;;;;;;2.28;1.70;;;;;;;;;;4943033;29;20039;-83
2022/08/07 14:46:37;;;;;;;3.58;2.08;;;;;;;;;;4960565;28;20058;-83
2022/08/07 14:49:05;;;;;;;2.72;2.00;;;;;;;;;;4957228;28;20027;-83
2022/08/07 14:51:32;;;;;;;4.30;2.28;;;;;;;;;;4954600;28;20035;-82
2022/08/07 14:54:00;;;;;;;4.70;2.10;;;;;;;;;;4983543;28;20074;-82
2022/08/07 14:56:27;;;;;;;3.83;1.90;;;;;;;;;;4953728;28;20055;-81
2022/08/07 14:58:59;;;;;;;1.83;1.70;;;;;;;;;;4947506;28;20051;-82
2022/08/07 15:01:27;;;;;;;4.85;2.20;;;;;;;;;;4956942;28;20800;-81
2022/08/07 15:03:53;;;;;;;4.38;2.47;;;;;;;;;;4954495;28;20090;-81
2022/08/07 15:06:24;;;;;;;3.55;2.00;;;;;;;;;;4959487;29;20023;-82
2022/08/07 15:08:51;;;;;;;4.93;2.10;;;;;;;;;;4958785;28;20035;-82
2022/08/07 15:11:19;;;;;;;2.83;1.95;;;;;;;;;;4954631;28;20046;-81
2022/08/07 15:13:51;;;;;;;3.03;1.70;;;;;;;;;;4951549;28;20449;-82
2022/08/07 15:16:17;;;;;;;3.17;1.73;;;;;;;;;;4957106;28;20046;-82